createdAt,value
2022-12-25T00:00:25.181Z,79808.94
2022-12-25T00:01:57.979Z,79816.84
2022-12-25T00:03:31.565Z,79818.81
2022-12-25T00:05:04.429Z,79824.75
2022-12-25T00:06:37.057Z,79820.81
2022-12-25T00:08:10.285Z,79812.88
2022-12-25T00:09:42.983Z,79808.94
2022-12-25T00:11:16.864Z,79816.84
2022-12-25T00:12:49.731Z,79820.81
2022-12-25T00:14:22.480Z,79836.63
2022-12-25T00:15:55.380Z,79848.50
2022-12-25T00:17:28.093Z,79842.56
2022-12-25T00:19:01.522Z,79852.47
2022-12-25T00:20:34.424Z,79854.44
2022-12-25T00:22:07.149Z,79854.44
2022-12-25T00:23:39.973Z,79860.38
2022-12-25T00:25:12.739Z,79876.22
2022-12-25T00:26:45.571Z,79880.19
2022-12-25T00:28:18.421Z,79876.22
2022-12-25T00:29:50.965Z,79880.19
2022-12-25T00:31:24.941Z,79878.19
2022-12-25T00:32:57.708Z,79876.22
2022-12-25T00:34:30.376Z,79876.22
2022-12-25T00:36:03.940Z,79882.16
2022-12-25T00:37:36.610Z,79872.25
2022-12-25T00:39:09.752Z,79874.25
2022-12-25T00:40:44.359Z,79870.28
2022-12-25T00:42:19.836Z,79884.13
2022-12-25T00:43:52.658Z,79888.09
2022-12-25T00:45:25.623Z,79884.13
2022-12-25T00:46:58.502Z,79886.13
2022-12-25T00:48:31.641Z,79888.09
2022-12-25T00:50:04.597Z,79903.91
2022-12-25T00:51:37.406Z,79899.97
2022-12-25T00:53:10.054Z,79896.00
2022-12-25T00:54:42.664Z,79899.97
2022-12-25T00:56:15.589Z,79899.97
2022-12-25T00:57:48.443Z,79903.91
2022-12-25T00:59:21.085Z,79901.94
2022-12-25T01:00:53.745Z,79903.91
2022-12-25T01:02:26.601Z,79901.94
2022-12-25T01:03:59.655Z,79901.94
2022-12-25T01:05:32.259Z,79888.09
2022-12-25T01:07:04.897Z,79888.09
2022-12-25T01:08:38.725Z,79880.19
2022-12-25T01:10:24.064Z,79866.31
2022-12-25T01:11:56.766Z,79854.44
2022-12-25T01:13:29.762Z,79842.56
2022-12-25T01:15:02.796Z,79836.63
2022-12-25T01:16:35.713Z,79824.75
2022-12-25T01:18:10.700Z,79822.78
2022-12-25T01:19:45.419Z,79816.84
2022-12-25T01:21:20.386Z,79814.88
2022-12-25T01:22:53.594Z,79824.75
2022-12-25T01:24:26.539Z,79820.81
2022-12-25T01:26:04.219Z,79828.72
2022-12-25T01:27:37.142Z,79844.56
2022-12-25T01:29:09.892Z,79848.50
2022-12-25T01:30:48.538Z,79848.50
2022-12-25T01:32:21.416Z,79836.63
2022-12-25T01:33:54.051Z,79820.81
2022-12-25T01:35:26.795Z,79820.81
2022-12-25T01:36:59.329Z,79812.88
2022-12-25T01:38:32.962Z,79803.00
2022-12-25T01:40:06.080Z,79799.03
2022-12-25T01:41:38.877Z,79777.28
2022-12-25T01:43:25.951Z,79769.34
2022-12-25T01:44:58.743Z,79759.47
2022-12-25T01:46:31.554Z,79769.34
2022-12-25T01:48:07.375Z,79785.19
2022-12-25T01:49:41.017Z,79795.06
2022-12-25T01:51:24.129Z,79793.09
2022-12-25T01:52:58.336Z,79793.09
2022-12-25T01:54:33.815Z,79789.13
2022-12-25T01:56:07.634Z,79793.09
2022-12-25T01:57:41.339Z,79789.13
2022-12-25T01:59:16.475Z,79797.06
2022-12-25T02:00:49.221Z,79801.00
2022-12-25T02:02:22.773Z,79797.06
2022-12-25T02:03:59.255Z,79795.06
2022-12-25T02:05:33.786Z,79791.13
2022-12-25T02:07:16.684Z,79789.13
2022-12-25T02:08:50.413Z,79795.06
2022-12-25T02:10:23.287Z,79808.94
2022-12-25T02:11:59.042Z,79801.00
2022-12-25T02:13:33.182Z,79812.88
2022-12-25T02:15:10.456Z,79814.88
2022-12-25T02:16:56.910Z,79816.84
2022-12-25T02:18:42.809Z,79824.75
2022-12-25T02:20:40.273Z,79840.59
2022-12-25T02:22:28.577Z,79856.44
2022-12-25T02:24:07.636Z,79864.34
2022-12-25T02:25:53.373Z,79868.31
2022-12-25T02:27:35.151Z,79868.31
2022-12-25T02:29:11.070Z,79884.13
2022-12-25T02:30:46.686Z,79878.19
2022-12-25T02:32:25.395Z,79892.06
2022-12-25T02:34:13.623Z,79892.06
2022-12-25T02:35:48.200Z,79888.09
2022-12-25T02:37:39.556Z,79888.09
2022-12-25T02:39:39.164Z,79896.00
2022-12-25T02:41:14.835Z,79888.09
2022-12-25T02:43:20.016Z,79876.22
2022-12-25T02:45:11.927Z,79864.34
2022-12-25T02:47:02.556Z,79850.50
2022-12-25T02:48:55.872Z,79854.44
2022-12-25T02:50:47.721Z,79858.41
2022-12-25T02:52:39.750Z,79858.41
2022-12-25T02:54:36.474Z,79850.50
2022-12-25T02:56:28.465Z,79842.56
2022-12-25T02:58:23.238Z,79848.50
2022-12-25T03:00:17.960Z,79850.50
2022-12-25T03:02:09.484Z,79860.38
2022-12-25T03:04:01.935Z,79864.34
2022-12-25T03:05:56.191Z,79846.53
2022-12-25T03:07:30.665Z,79854.44
2022-12-25T03:09:23.249Z,79852.47
2022-12-25T03:11:18.456Z,79852.47
2022-12-25T03:12:54.233Z,79842.56
2022-12-25T03:14:46.217Z,79838.63
2022-12-25T03:16:38.621Z,79844.56
2022-12-25T03:18:14.723Z,79854.44
2022-12-25T03:20:05.655Z,79842.56
2022-12-25T03:21:56.797Z,79850.50
2022-12-25T03:23:50.763Z,79864.34
2022-12-25T03:25:44.879Z,79884.13
2022-12-25T03:27:17.499Z,79896.00
2022-12-25T03:28:50.191Z,79903.91
2022-12-25T03:30:43.423Z,79913.81
2022-12-25T03:32:18.939Z,79913.81
2022-12-25T03:34:28.270Z,79923.72
2022-12-25T03:36:10.525Z,79919.75
2022-12-25T03:37:45.728Z,79929.66
2022-12-25T03:39:44.758Z,79931.63
2022-12-25T03:41:36.083Z,79931.63
2022-12-25T03:43:34.563Z,79931.63
2022-12-25T03:45:32.884Z,79935.59
2022-12-25T03:47:44.667Z,79945.47
2022-12-25T03:49:40.587Z,79967.25
2022-12-25T03:51:32.941Z,79987.03
2022-12-25T03:53:28.133Z,79979.13
2022-12-25T03:55:22.078Z,79985.06
2022-12-25T03:57:14.176Z,79991.00
2022-12-25T03:59:09.594Z,79994.97
2022-12-25T04:01:00.727Z,80014.75
2022-12-25T04:03:12.137Z,80010.78
2022-12-25T04:05:03.625Z,80014.75
2022-12-25T04:06:54.888Z,80022.66
2022-12-25T04:08:46.138Z,80004.84
2022-12-25T04:10:37.193Z,80014.75
2022-12-25T04:12:28.446Z,80014.75
2022-12-25T04:14:19.735Z,80018.72
2022-12-25T04:16:11.519Z,80018.72
2022-12-25T04:18:02.621Z,80022.66
2022-12-25T04:19:53.871Z,80006.84
2022-12-25T04:21:45.248Z,80000.91
2022-12-25T04:23:36.473Z,80002.88
2022-12-25T04:25:27.583Z,79992.97
2022-12-25T04:27:18.799Z,79991.00
2022-12-25T04:29:10.108Z,79989.03
2022-12-25T04:31:01.323Z,79991.00
2022-12-25T04:32:52.534Z,79983.09
2022-12-25T04:34:43.859Z,79983.09
2022-12-25T04:36:17.155Z,79975.16
2022-12-25T04:37:49.966Z,79981.09
2022-12-25T04:39:22.899Z,79973.19
2022-12-25T04:40:55.624Z,79983.09
2022-12-25T04:42:28.497Z,79959.34
2022-12-25T04:44:01.378Z,79969.22
2022-12-25T04:45:34.201Z,79961.31
2022-12-25T04:47:11.099Z,79953.41
2022-12-25T04:48:44.292Z,79943.50
2022-12-25T04:50:17.102Z,79921.72
2022-12-25T04:51:49.824Z,79907.88
2022-12-25T04:53:22.390Z,79884.13
2022-12-25T04:54:55.115Z,79818.81
2022-12-25T04:56:27.836Z,79632.81
2022-12-25T04:58:00.547Z,79502.19
2022-12-25T04:59:33.148Z,79446.78
2022-12-25T05:01:06.519Z,79377.53
2022-12-25T05:02:39.262Z,79296.41
2022-12-25T05:04:12.099Z,79179.66
2022-12-25T05:05:44.795Z,79104.47
2022-12-25T05:07:18.111Z,79057.00
2022-12-25T05:08:50.866Z,78981.81
2022-12-25T05:10:24.051Z,78948.16
2022-12-25T05:11:56.842Z,78954.09
2022-12-25T05:13:29.729Z,79021.38
2022-12-25T05:15:02.384Z,79076.78
2022-12-25T05:16:35.221Z,78987.72
2022-12-25T05:18:07.982Z,78894.75
2022-12-25T05:19:40.776Z,78855.16
2022-12-25T05:21:13.751Z,78787.91
2022-12-25T05:22:46.594Z,78772.06
2022-12-25T05:24:19.621Z,78772.06
2022-12-25T05:25:52.365Z,78754.28
2022-12-25T05:27:25.131Z,78740.41
2022-12-25T05:28:58.122Z,78720.63
2022-12-25T05:30:30.894Z,78694.91
2022-12-25T05:32:03.738Z,78659.31
2022-12-25T05:33:36.452Z,78645.47
2022-12-25T05:35:09.525Z,78609.84
2022-12-25T05:36:42.197Z,78637.53
2022-12-25T05:38:14.944Z,78568.31
2022-12-25T05:39:47.635Z,78538.63
2022-12-25T05:41:20.517Z,78495.09
2022-12-25T05:42:53.079Z,78471.34
2022-12-25T05:44:25.931Z,78479.28
2022-12-25T05:45:58.917Z,78552.47
2022-12-25T05:47:31.621Z,78582.16
2022-12-25T05:49:05.921Z,78578.19
2022-12-25T05:50:39.033Z,78588.09
2022-12-25T05:52:12.576Z,78548.50
2022-12-25T05:53:45.369Z,78603.91
2022-12-25T05:55:18.076Z,78688.97
2022-12-25T05:56:50.836Z,78685.03
2022-12-25T05:58:23.435Z,78764.16
2022-12-25T05:59:59.177Z,78880.91
2022-12-25T06:01:32.304Z,78965.97
2022-12-25T06:03:05.303Z,78969.94
2022-12-25T06:04:37.919Z,78954.09
2022-12-25T06:06:11.480Z,78934.31
2022-12-25T06:07:44.145Z,78888.81
2022-12-25T06:09:16.963Z,78831.44
2022-12-25T06:10:49.708Z,78789.88
2022-12-25T06:12:22.623Z,78764.16
2022-12-25T06:13:56.049Z,78736.47
2022-12-25T06:15:28.954Z,78726.56
2022-12-25T06:17:01.803Z,78760.22
2022-12-25T06:18:38.226Z,78708.75
2022-12-25T06:20:10.971Z,78661.28
2022-12-25T06:21:43.795Z,78631.59
2022-12-25T06:23:16.721Z,78718.66
2022-12-25T06:24:49.565Z,78653.38
2022-12-25T06:26:22.250Z,78627.66
2022-12-25T06:27:55.060Z,78736.47
2022-12-25T06:29:27.831Z,78847.25
2022-12-25T06:31:05.872Z,78865.06
2022-12-25T06:32:38.506Z,78882.88
2022-12-25T06:34:11.479Z,78940.25
2022-12-25T06:35:44.178Z,78971.91
2022-12-25T06:37:17.109Z,79007.53
2022-12-25T06:38:49.738Z,78983.78
2022-12-25T06:40:22.427Z,78942.22
2022-12-25T06:41:55.221Z,78902.66
2022-12-25T06:43:28.122Z,78928.38
2022-12-25T06:45:00.949Z,78894.75
2022-12-25T06:46:35.692Z,78906.63
2022-12-25T06:48:08.360Z,78942.22
2022-12-25T06:49:41.250Z,78952.13
2022-12-25T06:51:14.483Z,78958.06
2022-12-25T06:52:47.286Z,78983.78
2022-12-25T06:54:19.927Z,78993.66
2022-12-25T06:55:52.992Z,79049.06
2022-12-25T06:57:25.858Z,79076.78
2022-12-25T06:59:00.050Z,79064.91
2022-12-25T07:00:32.732Z,79031.25
2022-12-25T07:02:06.175Z,79057.00
2022-12-25T07:03:39.042Z,79013.47
2022-12-25T07:05:12.029Z,78987.72
2022-12-25T07:06:44.606Z,78973.88
2022-12-25T07:08:17.339Z,78954.09
2022-12-25T07:09:50.007Z,78952.13
2022-12-25T07:11:22.931Z,78950.16
2022-12-25T07:12:55.644Z,79015.44
2022-12-25T07:14:28.382Z,79013.47
2022-12-25T07:16:02.691Z,79029.28
2022-12-25T07:17:36.260Z,79155.91
2022-12-25T07:19:09.652Z,79148.00
2022-12-25T07:20:42.708Z,79102.50
2022-12-25T07:22:16.441Z,79177.69
2022-12-25T07:23:50.405Z,79108.44
2022-12-25T07:25:23.395Z,79116.34
2022-12-25T07:26:56.638Z,79132.19
2022-12-25T07:28:30.215Z,79086.66
2022-12-25T07:30:03.026Z,79108.44
2022-12-25T07:31:36.052Z,79132.19
2022-12-25T07:33:08.925Z,79108.44
2022-12-25T07:34:41.683Z,79175.72
2022-12-25T07:36:15.038Z,79191.53
2022-12-25T07:37:47.890Z,79203.41
2022-12-25T07:39:20.947Z,79185.59
2022-12-25T07:40:54.145Z,79130.19
2022-12-25T07:42:27.369Z,79108.44
2022-12-25T07:44:00.380Z,79140.09
2022-12-25T07:45:33.510Z,79195.50
2022-12-25T07:47:06.817Z,79132.19
2022-12-25T07:48:40.060Z,79100.53
2022-12-25T07:50:12.713Z,79084.69
2022-12-25T07:51:46.002Z,79076.78
2022-12-25T07:53:18.770Z,79053.03
2022-12-25T07:54:51.731Z,79043.13
2022-12-25T07:56:24.549Z,79041.16
2022-12-25T07:57:57.385Z,79033.25
2022-12-25T07:59:29.975Z,79074.78
2022-12-25T08:01:04.803Z,79124.25
2022-12-25T08:02:38.102Z,79051.06
2022-12-25T08:04:12.278Z,79037.19
2022-12-25T08:05:45.439Z,79033.25
2022-12-25T08:07:18.145Z,79031.25
2022-12-25T08:08:50.847Z,79029.28
2022-12-25T08:10:23.870Z,79029.28
2022-12-25T08:11:57.186Z,79013.47
2022-12-25T08:13:33.674Z,79023.34
2022-12-25T08:15:06.910Z,79013.47
2022-12-25T08:16:42.208Z,79013.47
2022-12-25T08:18:15.980Z,79003.56
2022-12-25T08:19:48.940Z,79005.53
2022-12-25T08:21:22.036Z,79001.59
2022-12-25T08:22:55.152Z,79001.59
2022-12-25T08:24:27.704Z,78983.78
2022-12-25T08:26:05.157Z,78985.75
2022-12-25T08:27:38.985Z,78993.66
2022-12-25T08:29:12.138Z,78993.66
2022-12-25T08:30:45.307Z,78991.69
2022-12-25T08:32:18.495Z,79015.44
2022-12-25T08:33:52.614Z,79027.31
2022-12-25T08:35:26.829Z,79005.53
2022-12-25T08:36:59.877Z,79005.53
2022-12-25T08:38:33.268Z,79015.44
2022-12-25T08:40:06.633Z,78993.66
2022-12-25T08:41:40.727Z,79005.53
2022-12-25T08:43:13.480Z,78983.78
2022-12-25T08:44:46.458Z,79013.47
2022-12-25T08:46:19.669Z,79009.50
2022-12-25T08:47:56.151Z,78997.63
2022-12-25T08:49:29.537Z,79021.38
2022-12-25T08:51:02.804Z,79017.41
2022-12-25T08:52:35.587Z,79005.53
2022-12-25T08:54:09.403Z,79007.53
2022-12-25T08:55:42.524Z,79001.59
2022-12-25T08:57:15.734Z,79041.16
2022-12-25T08:58:48.604Z,79019.41
2022-12-25T09:00:21.454Z,79001.59
2022-12-25T09:01:54.459Z,78985.75
2022-12-25T09:03:28.104Z,78993.66
2022-12-25T09:05:01.058Z,78989.72
2022-12-25T09:06:33.964Z,79005.53
2022-12-25T09:08:07.064Z,78983.78
2022-12-25T09:09:40.318Z,78993.66
2022-12-25T09:11:14.033Z,78989.72
2022-12-25T09:12:47.305Z,78991.69
2022-12-25T09:14:19.992Z,78973.88
2022-12-25T09:15:52.963Z,78977.84
2022-12-25T09:17:25.759Z,78969.94
2022-12-25T09:18:58.961Z,78950.16
2022-12-25T09:20:31.604Z,78946.19
2022-12-25T09:22:05.012Z,78950.16
2022-12-25T09:23:38.147Z,78960.03
2022-12-25T09:25:10.954Z,78977.84
2022-12-25T09:26:43.647Z,78948.16
2022-12-25T09:28:17.621Z,78952.13
2022-12-25T09:29:50.658Z,78969.94
2022-12-25T09:31:23.991Z,78973.88
2022-12-25T09:32:56.728Z,78973.88
2022-12-25T09:34:29.569Z,78987.72
2022-12-25T09:36:03.996Z,79001.59
2022-12-25T09:37:37.239Z,78993.66
2022-12-25T09:39:09.938Z,79001.59
2022-12-25T09:40:42.951Z,79021.38
2022-12-25T09:42:26.356Z,79037.19
2022-12-25T09:43:59.120Z,79031.25
2022-12-25T09:45:37.710Z,79021.38
2022-12-25T09:47:25.975Z,79049.06
2022-12-25T09:49:17.454Z,79037.19
2022-12-25T09:51:13.458Z,79039.19
2022-12-25T09:52:49.806Z,79058.97
2022-12-25T09:54:32.624Z,79058.97
2022-12-25T09:56:14.454Z,79045.13
2022-12-25T09:57:50.922Z,79049.06
2022-12-25T09:59:25.549Z,79037.19
2022-12-25T10:01:15.601Z,79041.16
2022-12-25T10:03:07.110Z,79021.38
2022-12-25T10:04:49.038Z,79041.16
2022-12-25T10:06:25.405Z,79047.09
2022-12-25T10:08:07.614Z,79057.00
2022-12-25T10:09:53.960Z,79062.94
2022-12-25T10:11:27.156Z,79080.72
2022-12-25T10:13:19.021Z,79082.72
2022-12-25T10:14:54.908Z,79068.84
2022-12-25T10:16:27.619Z,79082.72
2022-12-25T10:18:26.445Z,79076.78
2022-12-25T10:20:14.124Z,79086.66
2022-12-25T10:21:48.462Z,79074.78
2022-12-25T10:23:33.089Z,79068.84
2022-12-25T10:25:07.249Z,79108.44
2022-12-25T10:26:40.347Z,79092.59
2022-12-25T10:28:14.904Z,79092.59
2022-12-25T10:29:51.175Z,79102.50
2022-12-25T10:31:26.057Z,79116.34
2022-12-25T10:32:59.069Z,79116.34
2022-12-25T10:34:32.898Z,79142.06
2022-12-25T10:36:07.249Z,79136.13
2022-12-25T10:37:41.207Z,79136.13
2022-12-25T10:39:18.202Z,79130.19
2022-12-25T10:40:56.902Z,79114.38
2022-12-25T10:42:43.990Z,79116.34
2022-12-25T10:44:20.910Z,79114.38
2022-12-25T10:45:53.791Z,79116.34
2022-12-25T10:47:28.509Z,79140.09
2022-12-25T10:49:02.842Z,79153.94
2022-12-25T10:50:42.742Z,79167.78
2022-12-25T10:52:25.786Z,79163.84
2022-12-25T10:53:58.884Z,79163.84
2022-12-25T10:55:32.774Z,79187.56
2022-12-25T10:57:19.146Z,79197.47
2022-12-25T10:58:52.186Z,79203.41
2022-12-25T11:00:32.773Z,79185.59
2022-12-25T11:02:14.517Z,79167.78
2022-12-25T11:03:52.147Z,79171.75
2022-12-25T11:05:29.259Z,79183.63
2022-12-25T11:07:05.773Z,79189.56
2022-12-25T11:08:39.179Z,79191.53
2022-12-25T11:10:21.058Z,79201.44
2022-12-25T11:11:53.888Z,79201.44
2022-12-25T11:13:28.877Z,79225.16
2022-12-25T11:15:03.591Z,79246.94
2022-12-25T11:16:38.656Z,79252.88
2022-12-25T11:18:18.288Z,79248.91
2022-12-25T11:19:58.235Z,79250.91
2022-12-25T11:21:32.788Z,79252.88
2022-12-25T11:23:10.456Z,79262.78
2022-12-25T11:24:43.260Z,79258.81
2022-12-25T11:26:17.062Z,79274.63
2022-12-25T11:28:03.167Z,79288.50
2022-12-25T11:29:49.817Z,79310.25
2022-12-25T11:31:48.799Z,79298.38
2022-12-25T11:33:23.087Z,79296.41
2022-12-25T11:34:56.856Z,79296.41
2022-12-25T11:36:33.148Z,79306.31
2022-12-25T11:38:05.890Z,79318.16
2022-12-25T11:39:40.656Z,79322.13
2022-12-25T11:41:14.477Z,79322.13
2022-12-25T11:42:55.081Z,79318.16
2022-12-25T11:44:34.833Z,79337.97
2022-12-25T11:46:07.830Z,79357.75
2022-12-25T11:47:43.842Z,79355.78
2022-12-25T11:49:19.133Z,79365.66
2022-12-25T11:50:57.757Z,79373.56
2022-12-25T11:52:34.482Z,79377.53
2022-12-25T11:54:18.835Z,79385.44
2022-12-25T11:55:55.085Z,79397.31
2022-12-25T11:57:29.496Z,79401.28
2022-12-25T11:59:07.673Z,79399.31
2022-12-25T12:00:42.010Z,79405.25
2022-12-25T12:02:17.799Z,79409.19
2022-12-25T12:03:50.571Z,79430.97
2022-12-25T12:05:26.378Z,79411.19
2022-12-25T12:07:07.085Z,79399.31
2022-12-25T12:08:40.288Z,79417.13
2022-12-25T12:10:20.354Z,79413.16
2022-12-25T12:11:58.533Z,79430.97
2022-12-25T12:13:37.501Z,79448.78
2022-12-25T12:15:16.796Z,79460.66
2022-12-25T12:16:49.910Z,79464.59
2022-12-25T12:18:23.115Z,79456.69
2022-12-25T12:19:58.016Z,79470.53
2022-12-25T12:21:31.564Z,79478.44
2022-12-25T12:23:12.065Z,79496.25
2022-12-25T12:24:45.416Z,79508.13
2022-12-25T12:26:22.324Z,79512.09
2022-12-25T12:28:02.835Z,79516.06
2022-12-25T12:29:43.921Z,79523.97
2022-12-25T12:31:16.990Z,79535.84
2022-12-25T12:32:51.671Z,79529.91
2022-12-25T12:34:38.917Z,79525.94
2022-12-25T12:36:14.077Z,79527.94
2022-12-25T12:37:50.205Z,79527.94
2022-12-25T12:39:25.579Z,79533.84
2022-12-25T12:41:00.436Z,79518.03
2022-12-25T12:42:36.390Z,79512.09
2022-12-25T12:44:12.361Z,79508.13
2022-12-25T12:45:54.854Z,79531.88
2022-12-25T12:47:37.450Z,79527.94
2022-12-25T12:49:10.372Z,79537.81
2022-12-25T12:50:43.451Z,79539.81
2022-12-25T12:52:30.631Z,79547.72
2022-12-25T12:54:21.625Z,79561.56
2022-12-25T12:55:54.813Z,79555.63
2022-12-25T12:57:30.106Z,79555.63
2022-12-25T12:59:02.721Z,79543.75
2022-12-25T13:00:46.826Z,79537.81
2022-12-25T13:02:38.217Z,79529.91
2022-12-25T13:04:30.479Z,79522.00
2022-12-25T13:06:12.220Z,79533.84
2022-12-25T13:08:06.778Z,79535.84
2022-12-25T13:09:39.773Z,79559.59
2022-12-25T13:11:26.826Z,79563.53
2022-12-25T13:13:05.576Z,79553.66
2022-12-25T13:14:38.700Z,79557.59
2022-12-25T13:16:18.818Z,79551.66
2022-12-25T13:17:51.864Z,79543.75
2022-12-25T13:19:26.317Z,79551.66
2022-12-25T13:21:01.655Z,79567.50
2022-12-25T13:22:36.136Z,79555.63
2022-12-25T13:24:21.028Z,79549.69
2022-12-25T13:25:58.055Z,79543.75
2022-12-25T13:27:32.014Z,79531.88
2022-12-25T13:29:11.054Z,79518.03
2022-12-25T13:30:44.310Z,79516.06
2022-12-25T13:32:22.760Z,79522.00
2022-12-25T13:34:01.502Z,79535.84
2022-12-25T13:35:34.239Z,79535.84
2022-12-25T13:37:17.933Z,79547.72
2022-12-25T13:38:51.931Z,79543.75
2022-12-25T13:40:28.412Z,79545.72
2022-12-25T13:42:06.921Z,79545.72
2022-12-25T13:43:40.598Z,79547.72
2022-12-25T13:45:13.175Z,79557.59
2022-12-25T13:46:46.198Z,79555.63
2022-12-25T13:48:21.416Z,79569.47
2022-12-25T13:49:56.128Z,79593.22
2022-12-25T13:51:29.128Z,79603.13
2022-12-25T13:53:12.651Z,79595.22
2022-12-25T13:54:55.984Z,79579.38
2022-12-25T13:56:28.960Z,79577.41
2022-12-25T13:58:03.510Z,79585.31
2022-12-25T13:59:38.103Z,79601.13
2022-12-25T14:01:12.834Z,79599.16
2022-12-25T14:02:45.998Z,79603.13
2022-12-25T14:04:23.420Z,79595.22
2022-12-25T14:06:00.952Z,79615.00
2022-12-25T14:07:35.030Z,79638.75
2022-12-25T14:09:07.894Z,79646.66
2022-12-25T14:10:41.318Z,79650.63
2022-12-25T14:12:19.242Z,79646.66
2022-12-25T14:13:54.599Z,79646.66
2022-12-25T14:15:28.888Z,79642.69
2022-12-25T14:17:01.743Z,79638.75
2022-12-25T14:18:34.841Z,79636.75
2022-12-25T14:20:08.789Z,79648.63
2022-12-25T14:21:49.459Z,79650.63
2022-12-25T14:23:22.254Z,79654.56
2022-12-25T14:24:55.345Z,79650.63
2022-12-25T14:26:29.973Z,79640.72
2022-12-25T14:28:06.571Z,79638.75
2022-12-25T14:29:42.256Z,79630.81
2022-12-25T14:31:15.245Z,79630.81
2022-12-25T14:32:53.115Z,79642.69
2022-12-25T14:34:33.675Z,79634.78
2022-12-25T14:36:07.379Z,79628.84
2022-12-25T14:37:41.763Z,79626.88
2022-12-25T14:39:25.500Z,79634.78
2022-12-25T14:41:33.873Z,79634.78
2022-12-25T14:43:20.481Z,79634.78
2022-12-25T14:44:58.923Z,79634.78
2022-12-25T14:46:32.709Z,79658.53
2022-12-25T14:48:22.931Z,79650.63
2022-12-25T14:49:57.691Z,79638.75
2022-12-25T14:51:31.364Z,79664.47
2022-12-25T14:53:04.025Z,79652.59
2022-12-25T14:54:37.441Z,79630.81
2022-12-25T14:56:13.085Z,79615.00
2022-12-25T14:57:49.416Z,79603.13
2022-12-25T14:59:25.564Z,79595.22
2022-12-25T15:00:59.763Z,79583.34
2022-12-25T15:02:40.276Z,79575.41
2022-12-25T15:04:13.089Z,79577.41
2022-12-25T15:05:45.778Z,79575.41
2022-12-25T15:07:29.217Z,79579.38
2022-12-25T15:09:07.139Z,79607.09
2022-12-25T15:12:33.838Z,79666.44
2022-12-25T15:14:06.734Z,79664.47
2022-12-25T15:15:42.192Z,79688.22
2022-12-25T15:17:25.390Z,79708.00
2022-12-25T15:19:00.684Z,79715.91
2022-12-25T15:20:34.620Z,79741.66
2022-12-25T15:22:07.566Z,79735.72
2022-12-25T15:23:40.316Z,79747.59
2022-12-25T15:25:15.064Z,79763.41
2022-12-25T15:26:47.859Z,79765.41
2022-12-25T15:28:20.664Z,79771.31
2022-12-25T15:30:09.835Z,79757.47
2022-12-25T15:31:43.013Z,79773.31
2022-12-25T15:33:17.111Z,79779.25
2022-12-25T15:34:50.441Z,79767.38
2022-12-25T15:36:23.625Z,79763.41
2022-12-25T15:37:56.467Z,79775.28
2022-12-25T15:39:29.177Z,79765.41
2022-12-25T15:41:02.025Z,79767.38
2022-12-25T15:42:34.803Z,79767.38
2022-12-25T15:44:07.926Z,79749.56
2022-12-25T15:45:40.631Z,79743.63
2022-12-25T15:47:14.418Z,79733.72
2022-12-25T15:48:47.394Z,79729.78
2022-12-25T15:50:22.010Z,79717.91
2022-12-25T15:51:54.773Z,79735.72
2022-12-25T15:53:27.613Z,79737.69
2022-12-25T15:55:00.545Z,79739.66
2022-12-25T15:56:49.433Z,79741.66
2022-12-25T15:58:22.411Z,79741.66
2022-12-25T15:59:55.489Z,79741.66
2022-12-25T16:01:28.641Z,79733.72
2022-12-25T16:03:01.912Z,79717.91
2022-12-25T16:04:34.715Z,79721.84
2022-12-25T16:06:09.547Z,79721.84
2022-12-25T16:07:42.379Z,79721.84
2022-12-25T16:09:15.904Z,79717.91
2022-12-25T16:10:49.025Z,79702.06
2022-12-25T16:12:22.615Z,79686.25
2022-12-25T16:13:55.691Z,79678.31
2022-12-25T16:15:28.383Z,79678.31
2022-12-25T16:17:01.139Z,79668.44
2022-12-25T16:18:35.064Z,79690.19
2022-12-25T16:20:08.288Z,79690.19
2022-12-25T16:21:43.337Z,79694.16
2022-12-25T16:23:17.092Z,79698.09
2022-12-25T16:24:50.608Z,79694.16
2022-12-25T16:26:23.372Z,79690.19
2022-12-25T16:27:56.231Z,79686.25
2022-12-25T16:29:29.312Z,79698.09
2022-12-25T16:31:02.228Z,79698.09
2022-12-25T16:32:35.547Z,79694.16
2022-12-25T16:34:08.876Z,79688.22
2022-12-25T16:35:41.746Z,79686.25
2022-12-25T16:37:14.744Z,79686.25
2022-12-25T16:38:47.455Z,79686.25
2022-12-25T16:40:20.141Z,79676.34
2022-12-25T16:41:52.949Z,79672.38
2022-12-25T16:43:26.081Z,79646.66
2022-12-25T16:44:58.911Z,79654.56
2022-12-25T16:46:31.479Z,79660.50
2022-12-25T16:48:04.352Z,79674.38
2022-12-25T16:49:37.344Z,79682.28
2022-12-25T16:51:17.763Z,79682.28
2022-12-25T16:52:51.658Z,79702.06
2022-12-25T16:54:24.531Z,79702.06
2022-12-25T16:56:05.453Z,79698.09
2022-12-25T16:57:38.250Z,79709.97
2022-12-25T16:59:11.099Z,79702.06
2022-12-25T17:00:49.094Z,79694.16
2022-12-25T17:02:22.607Z,79696.13
2022-12-25T17:03:55.933Z,79686.25
2022-12-25T17:05:29.026Z,79696.13
2022-12-25T17:07:02.404Z,79706.03
2022-12-25T17:08:35.221Z,79692.16
2022-12-25T17:10:08.384Z,79708.00
2022-12-25T17:11:41.145Z,79694.16
2022-12-25T17:13:13.879Z,79694.16
2022-12-25T17:14:46.640Z,79709.97
2022-12-25T17:16:20.752Z,79694.16
2022-12-25T17:17:53.885Z,79698.09
2022-12-25T17:19:26.715Z,79696.13
2022-12-25T17:20:59.350Z,79678.31
2022-12-25T17:22:32.034Z,79668.44
2022-12-25T17:24:05.135Z,79662.50
2022-12-25T17:25:38.246Z,79660.50
2022-12-25T17:27:11.758Z,79662.50
2022-12-25T17:28:44.968Z,79666.44
2022-12-25T17:30:18.183Z,79654.56
2022-12-25T17:31:51.728Z,79650.63
2022-12-25T17:33:24.814Z,79654.56
2022-12-25T17:34:57.911Z,79670.41
2022-12-25T17:36:31.229Z,79686.25
2022-12-25T17:38:04.255Z,79688.22
2022-12-25T17:39:37.076Z,79686.25
2022-12-25T17:41:12.262Z,79690.19
2022-12-25T17:42:44.953Z,79682.28
2022-12-25T17:44:18.184Z,79692.16
2022-12-25T17:45:50.916Z,79670.41
2022-12-25T17:47:23.696Z,79692.16
2022-12-25T17:48:57.440Z,79682.28
2022-12-25T17:50:31.830Z,79694.16
2022-12-25T17:52:07.688Z,79690.19
2022-12-25T17:53:41.888Z,79678.31
2022-12-25T17:55:14.660Z,79670.41
2022-12-25T17:56:50.287Z,79678.31
2022-12-25T17:58:23.260Z,79686.25
2022-12-25T17:59:56.426Z,79702.06
2022-12-25T18:01:29.881Z,79688.22
2022-12-25T18:03:10.572Z,79686.25
2022-12-25T18:04:44.310Z,79688.22
2022-12-25T18:06:18.406Z,79674.38
2022-12-25T18:07:50.991Z,79686.25
2022-12-25T18:09:23.692Z,79678.31
2022-12-25T18:11:00.031Z,79682.28
2022-12-25T18:12:33.410Z,79688.22
2022-12-25T18:14:06.794Z,79686.25
2022-12-25T18:15:40.185Z,79670.41
2022-12-25T18:17:13.487Z,79668.44
2022-12-25T18:18:51.876Z,79666.44
2022-12-25T18:20:25.045Z,79668.44
2022-12-25T18:21:57.893Z,79658.53
2022-12-25T18:23:31.013Z,79658.53
2022-12-25T18:25:03.736Z,79654.56
2022-12-25T18:26:36.863Z,79650.63
2022-12-25T18:28:09.985Z,79646.66
2022-12-25T18:29:42.829Z,79646.66
2022-12-25T18:31:17.175Z,79658.53
2022-12-25T18:32:49.774Z,79634.78
2022-12-25T18:34:23.620Z,79628.84
2022-12-25T18:35:58.175Z,79630.81
2022-12-25T18:37:35.915Z,79634.78
2022-12-25T18:39:13.542Z,79624.88
2022-12-25T18:40:47.789Z,79626.88
2022-12-25T18:42:39.365Z,79622.91
2022-12-25T18:44:12.626Z,79609.06
2022-12-25T18:45:46.092Z,79595.22
2022-12-25T18:47:18.837Z,79583.34
2022-12-25T18:48:51.640Z,79561.56
2022-12-25T18:50:24.446Z,79565.53
2022-12-25T18:52:49.507Z,79551.66
2022-12-25T18:53:55.243Z,79551.66
2022-12-25T18:55:28.069Z,79537.81
2022-12-25T18:57:07.355Z,79549.69